Strona główna
METAR-TAF:

METAR-TAF

Lotnisko :

Custer Airport

Monroe, Michigan, Stany Zjednoczone

Szerokość geograficzna: 41-56-24N, Długość geograficzna: 083-26-05W, wysokość: 188 m

Aktualna obserwacja pogody

Raport powstał 17 minut temu, godzina 19:39 UTC
Wiatr 13 kt od południowy zachód w porywach dochodzący do 20 kt
Temperatura 34°C
Wilgotność 63%
Ciśnienie 1011 hPa
Widzialność: 16.1 km
Rozproszone chmury na wysokości 4600 ft

METAR: KTTF 201939Z AUTO 23013G20KT 10SM SCT046 34/26 A2985 RMK AO2 T03430263

czas: 15:56 (19:56 UTC)


TAF: brakujący

Obserwacja i prognoza pogody dla ponad 4000 lotnisk (raport METAR i TAF).

Dostępne stacje oznaczono żółtymi i czerwonymi punktami na mapie.

Najedź kursorem aby zobaczyć nazwę stacji.

Kliknij aby zobaczyć obserwacje i prognozy pogody.

Aby zmienić mapę: kliknij na zielony przycisk z czarnym krzyżykiem, aby powiększyć; na zielony przycisk z myślnikiem, aby pomniejszyć; na zielone strzałki, aby przejść do map sąsiednich.


METAR-TAF: